London, United Kingdom

12:44 AM BST on September 17, 2014 (GMT +0100)
Heathrow | Change Station
CLOSE
Current Station
Airport
Location: London,
Elevation: 79 ft
Nearby Weather Stations

Elev 79 ft 51.48 °N, 0.46 °W | Updated 24 minutes ago

Haze
Haze
63 °F
Feels Like 63 °F
N
6
Wind Variable Wind from NE

Today
High -- | Low -- °F
--% Chance of Precip.
Yesterday
High -- | Low -- °F
Precip. -- in
6:39 AM 7:12 PM
Last Quarter, 41% visible
Pressure 29.95 in
Visibility -9999.0 miles
Clouds Scattered Clouds 1200 ft
Dew Point 59 °F
Humidity 88%
Rainfall 0.00 in
Snow Depth Not available.
UV 0 out of 12
Pollen Not available.
Air Quality Not available.
Flu Activity Not available.
METAR EGLL 162320Z 05005KT 3200 HZ SCT012 17/15 Q1014 TEMPO BKN009

More Conditions Fewer Conditions

Pressure 29.95 in
Visibility -9999.0 miles
Clouds Scattered Clouds 1200 ft
Dew Point 59 °F
Humidity 88%
Rainfall 0.00 in
Snow Depth Not available.
UV 0 out of 12
Pollen Not available.
Air Quality Not available.
Flu Activity Not available.
METAR EGLL 162320Z 05005KT 3200 HZ SCT012 17/15 Q1014 TEMPO BKN009

More Conditions Fewer Conditions

10-Day Weather Forecast

Almanac

Astronomy

Sep. 17, 2014 Rise Set
Actual Time 6:39 AM BST 7:12 PM BST
Civil Twilight 6:06 AM BST 7:45 PM BST
Nautical Twilight 5:26 AM BST 8:25 PM BST
Astronomical Twilight 4:43 AM BST 9:07 PM BST
Moon No Moon Rise 3:39 PM BST (9/17)
Length of Visible Light 13h 39m
Length of Day
12h 32m
Tomorrow will be 3m 53s shorter.
Last Quarter, 41% of the Moon is Illuminated
Sep 16
Last Quarter
Sep 24
New
Oct 1
First Quarter
Oct 8
Full
Oct 15
Last Quarter

Yesterday's Extremes

Country Highs Country Lows

Community

WunderPhotos

Upload Photos

1,753,917 photos uploaded!

Nearby

Snow Depth

Not available.

Earthquake Activity

City Distance Mag. Time & Date
No recent earthquake activity has been reported nearby.
Minimum magnitude displayed is 2.5.

Coastal Water Temperatures

Place Temperature
No Stations Reporting

Nearby Weather Stations